Nearby Weather Observations


KTIP - Rantoul, Illinois, USA
Distance from station: ENE 12mi, 19km
Updated: Thu, 18-Oct-2018 12:35pm CDT
Clear
Clear
 Wind from WSW
Wind: WSW 7 mph , 11 km/h
Temperature: 55°F , 13°C
Dew Point: 28°F , -2°C
Humidity: 36%
Barometer: 30.53 inHg , 1033.9 hPa
Clouds: Clear
Visibility: 10 miles , 16 km
2018/10/18 17:35 KTIP 181735Z AUTO 25006KT 10SM CLR 13/M02 A3053 RMK AO2 T01331019
KCMI - Champaign/Urbana, Illinois, USA
Distance from station: SSE 14mi, 22km
Updated: Thu, 18-Oct-2018 12:53pm CDT
Clear
Clear
 Wind from W
Wind: W 5 mph , 7 km/h
Temperature: 55°F , 13°C
Dew Point: 27°F , -3°C
Humidity: 33%
Barometer: 30.52 inHg , 1033.5 hPa
Clouds: Clear
Visibility: 10 miles , 16 km
2018/10/18 17:53 KCMI 181753Z 28004KT 10SM CLR 13/M03 A3052 RMK AO2 SLP337 I6000 T01281033 10128 21017 58015
 
KBMI - Bloomington/Norm, Illinois, USA
Distance from station: WNW 34mi, 55km
Updated: Thu, 18-Oct-2018 12:56pm CDT
Clear
Clear
 Wind from SW
Wind: SW 3 mph , 6 km/h
Temperature: 55°F , 13°C
Dew Point: 28°F , -2°C
Humidity: 36%
Barometer: 30.51 inHg , 1033.2 hPa
Clouds: Clear
Visibility: 10 miles , 16 km
2018/10/18 17:56 KBMI 181756Z 23003KT 10SM CLR 13/M02 A3051 RMK AO2 SLP360 T01281022 10128 21011 58016
KDEC - Decatur, Illinois, USA
Distance from station: SW 37mi, 60km
Updated: Thu, 18-Oct-2018 12:54pm CDT
Clear
Clear
 Wind from WSW
Wind: WSW 3 mph , 6 km/h
Temperature: 55°F , 13°C
Dew Point: 27°F , -3°C
Humidity: 33%
Barometer: 30.52 inHg , 1033.5 hPa
Clouds: Clear
Visibility: 10 miles , 16 km
2018/10/18 17:54 KDEC 181754Z 24003KT 10SM CLR 13/M03 A3052 RMK AO2 SLP337 T01281033 10133 21017 58017
 
KDNV - Danville, Illinois, USA
Distance from station: E 40mi, 65km
Updated: Thu, 18-Oct-2018 12:55pm CDT
Clear
Clear
 Wind from calm
Wind: Calm
Temperature: 54°F , 12°C
Dew Point: 30°F , -1°C
Humidity: 41%
Barometer: 30.49 inHg , 1032.5 hPa
Clouds: Clear
Visibility: 10 miles , 16 km
2018/10/18 17:55 KDNV 181755Z AUTO 00000KT 10SM CLR 12/M01 A3049 RMK AO2 T01221014 10122 21014
KAAA - Lincoln, Illinois, USA
Distance from station: W 52mi, 83km
Updated: Thu, 18-Oct-2018 12:55pm CDT
Clear
Clear
 Wind from SSW
Wind: SSW 6 mph , 9 km/h
Temperature: 57°F , 14°C
Dew Point: 30°F , -1°C
Humidity: 36%
Barometer: 30.51 inHg , 1033.2 hPa
Clouds: Clear
Visibility: 10 miles , 16 km
2018/10/18 17:55 KAAA 181755Z AUTO 20005KT 10SM CLR 14/M01 A3051 RMK AO2 T01351006
 
KMTO - Mattoon/Charlest, Illinois, USA
Distance from station: S 52mi, 84km
Updated: Thu, 18-Oct-2018 12:53pm CDT
Clear
Clear
 Wind from WSW
Wind: WSW 6 mph , 9 km/h
Temperature: 54°F , 12°C
Dew Point: 28°F , -2°C
Humidity: 38%
Barometer: 30.51 inHg , 1033.2 hPa
Clouds: Clear
Visibility: 10 miles , 16 km
2018/10/18 17:53 KMTO 181753Z AUTO 24005KT 10SM CLR 12/M02 A3051 RMK AO2 SLP336 T01221017 10122 21011 58016
KSPI - Springfield, Illinois, USA
Distance from station: WSW 74mi, 120km
Updated: Thu, 18-Oct-2018 12:52pm CDT
Clear
Clear
 Wind from S
Wind: S 8 mph , 13 km/h
Temperature: 55°F , 13°C
Dew Point: 30°F , -1°C
Humidity: 38%
Barometer: 30.52 inHg , 1033.5 hPa
Clouds: Clear
Visibility: 10 miles , 16 km
2018/10/18 17:52 KSPI 181752Z 19007KT 10SM CLR 13/M01 A3052 RMK AO2 SLP337 T01281006 10133 21022
 
KLAF - Lafayette, Indiana, USA
Distance from station: E 76mi, 123km
Updated: Thu, 18-Oct-2018 12:54pm CDT
Clear
Clear
 Wind from S
Wind: S 3 mph , 6 km/h
Temperature: 54°F , 12°C
Dew Point: 28°F , -2°C
Humidity: 38%
Barometer: 30.51 inHg , 1033.2 hPa
Clouds: Clear
Visibility: 10 miles , 16 km
2018/10/18 17:54 KLAF 181754Z 17003KT 10SM CLR 12/M02 A3051 RMK AO2 SLP336 I6000 T01171017 10122 21022 58015
KPIA - Peoria, Illinois, USA
Distance from station: WNW 76mi, 123km
Updated: Thu, 18-Oct-2018 12:54pm CDT
Clear
Clear
 Wind from S
Wind: S 6 mph , 9 km/h
Temperature: 55°F , 13°C
Dew Point: 34°F , 1°C
Humidity: 44%
Barometer: 30.51 inHg , 1033.2 hPa
Clouds: Clear
Visibility: 10 miles , 16 km
2018/10/18 17:54 KPIA 181754Z 18005KT 10SM CLR 13/01 A3051 RMK AO2 SLP334 T01280006 10133 21006 58019
 
KHUF - Terre Haute, Indiana, USA
Distance from station: SE 77mi, 124km
Updated: Thu, 18-Oct-2018 12:53pm CDT
Clear
Clear
 Wind from calm
Wind: Calm
Temperature: 54°F , 12°C
Dew Point: 30°F , -1°C
Humidity: 41%
Barometer: 30.52 inHg , 1033.5 hPa
Clouds: Clear
Visibility: 10 miles , 16 km
2018/10/18 17:53 KHUF 181753Z 00000KT 10SM CLR 12/M01 A3052 RMK AO2 SLP339 I6000 T01221006 10128 21017 58017
K1H2 - Effingham, Illinois, USA
Distance from station: S 80mi, 129km
Updated: Thu, 18-Oct-2018 12:55pm CDT
Clear
Clear
 Wind from SE
Wind: SE 3 mph , 6 km/h
Temperature: 55°F , 13°C
Dew Point: 32°F , 0°C
Humidity: 41%
Barometer: 30.54 inHg , 1034.2 hPa
Clouds: Clear
Visibility: 10 miles , 16 km
2018/10/18 17:55 K1H2 181755Z AUTO 13003KT 10SM CLR 13/00 A3054 RMK AO2 T01330000 10133 21001
 
KIND - Indianapolis, Indiana, USA
Distance from station: ESE 117mi, 133km
Updated: Thu, 18-Oct-2018 12:54pm CDT
Few Clouds
Few Clouds
 Wind from WSW
Wind: WSW 6 mph , 9 km/h
Temperature: 54°F , 12°C
Dew Point: 28°F , -2°C
Humidity: 38%
Barometer: 30.51 inHg , 1033.2 hPa
Clouds: Few Clouds
Visibility: 10 miles , 16 km
Cloud details: Few Clouds 15000 ft
2018/10/18 17:54 KIND 181754Z 24005KT 10SM FEW150 12/M02 A3051 RMK AO2 SLP336 T01171017 10117 20006 58015
KORD - Chicago O'hare, Illinois, USA
Distance from station: N 126mi, 203km
Updated: Thu, 18-Oct-2018 12:51pm CDT
Clear
Clear
 Wind from WSW
Wind: WSW 9 mph , 15 km/h
Temperature: 54°F , 12°C
Dew Point: 27°F , -3°C
Humidity: 35%
Barometer: 30.47 inHg , 1031.8 hPa
Clouds: Clear
Visibility: 10 miles , 16 km
2018/10/18 17:51 KORD 181751Z 24008KT 10SM CLR 12/M03 A3047 RMK AO2 SLP322 T01221033 10128 20011 58016
 
KSTL - St. Louis, Missouri, USA
Distance from station: SW 150mi, 185km
Updated: Thu, 18-Oct-2018 12:51pm CDT
Few Clouds
Few Clouds
 Wind from SSW
Wind: SSW 3 mph , 6 km/h
Temperature: 55°F , 13°C
Dew Point: 28°F , -2°C
Humidity: 36%
Barometer: 30.52 inHg , 1033.5 hPa
Clouds: Few Clouds
Visibility: 10 miles , 16 km
Cloud details: Few Clouds 25000 ft
2018/10/18 17:51 KSTL 181751Z 21003KT 10SM FEW250 13/M02 A3052 RMK AO2 SLP335 T01331022 10144 20028 58018